sensor_id;sensor_type;location;lat;lon;timestamp;temperature;humidity
6792;DHT22;3433;48.730;9.108;2022-10-20T00:01:06;12.40;99.90
6792;DHT22;3433;48.730;9.108;2022-10-20T00:03:33;12.40;99.90
6792;DHT22;3433;48.730;9.108;2022-10-20T00:06:08;12.40;99.90
6792;DHT22;3433;48.730;9.108;2022-10-20T00:08:35;12.30;99.90
6792;DHT22;3433;48.730;9.108;2022-10-20T00:11:02;12.30;99.90
6792;DHT22;3433;48.730;9.108;2022-10-20T00:13:29;12.30;99.90
6792;DHT22;3433;48.730;9.108;2022-10-20T00:15:57;12.20;99.90
6792;DHT22;3433;48.730;9.108;2022-10-20T00:18:26;12.20;99.90
6792;DHT22;3433;48.730;9.108;2022-10-20T00:20:53;12.20;99.90
6792;DHT22;3433;48.730;9.108;2022-10-20T00:23:21;12.20;99.90
6792;DHT22;3433;48.730;9.108;2022-10-20T00:25:48;12.20;99.90
6792;DHT22;3433;48.730;9.108;2022-10-20T00:28:25;12.10;99.90
6792;DHT22;3433;48.730;9.108;2022-10-20T00:30:53;12.20;99.90
6792;DHT22;3433;48.730;9.108;2022-10-20T00:33:20;12.10;99.90
6792;DHT22;3433;48.730;9.108;2022-10-20T00:35:51;12.10;99.90
6792;DHT22;3433;48.730;9.108;2022-10-20T00:38:18;12.10;99.90
6792;DHT22;3433;48.730;9.108;2022-10-20T00:40:45;12.10;99.90
6792;DHT22;3433;48.730;9.108;2022-10-20T00:43:14;12.10;99.90
6792;DHT22;3433;48.730;9.108;2022-10-20T00:45:43;12.00;99.90
6792;DHT22;3433;48.730;9.108;2022-10-20T00:48:13;12.10;99.90
6792;DHT22;3433;48.730;9.108;2022-10-20T00:50:42;12.00;99.90
6792;DHT22;3433;48.730;9.108;2022-10-20T00:53:14;12.00;99.90
6792;DHT22;3433;48.730;9.108;2022-10-20T00:55:43;12.00;99.90
6792;DHT22;3433;48.730;9.108;2022-10-20T00:58:12;12.00;99.90
6792;DHT22;3433;48.730;9.108;2022-10-20T01:00:41;12.00;99.90
6792;DHT22;3433;48.730;9.108;2022-10-20T01:03:14;12.10;99.90
6792;DHT22;3433;48.730;9.108;2022-10-20T01:05:42;12.20;99.90
6792;DHT22;3433;48.730;9.108;2022-10-20T01:08:09;12.30;99.90
6792;DHT22;3433;48.730;9.108;2022-10-20T01:10:40;12.30;99.90
6792;DHT22;3433;48.730;9.108;2022-10-20T01:13:14;12.30;99.90
6792;DHT22;3433;48.730;9.108;2022-10-20T01:15:49;12.40;99.90
6792;DHT22;3433;48.730;9.108;2022-10-20T01:18:24;12.40;99.90
6792;DHT22;3433;48.730;9.108;2022-10-20T01:21:10;12.40;99.90
6792;DHT22;3433;48.730;9.108;2022-10-20T01:23:53;12.50;99.90
6792;DHT22;3433;48.730;9.108;2022-10-20T01:26:56;12.50;99.90
6792;DHT22;3433;48.730;9.108;2022-10-20T01:29:29;12.50;99.90
6792;DHT22;3433;48.730;9.108;2022-10-20T01:32:06;12.50;99.90
6792;DHT22;3433;48.730;9.108;2022-10-20T01:34:39;12.40;99.90
6792;DHT22;3433;48.730;9.108;2022-10-20T01:37:16;12.40;99.90
6792;DHT22;3433;48.730;9.108;2022-10-20T01:39:48;12.30;99.90
6792;DHT22;3433;48.730;9.108;2022-10-20T01:42:20;12.30;99.90
6792;DHT22;3433;48.730;9.108;2022-10-20T01:44:51;12.20;99.90
6792;DHT22;3433;48.730;9.108;2022-10-20T01:47:20;12.20;99.90
6792;DHT22;3433;48.730;9.108;2022-10-20T01:49:48;12.20;99.90
6792;DHT22;3433;48.730;9.108;2022-10-20T01:52:15;12.10;99.90
6792;DHT22;3433;48.730;9.108;2022-10-20T01:54:43;12.10;99.90
6792;DHT22;3433;48.730;9.108;2022-10-20T01:57:23;12.00;99.90
6792;DHT22;3433;48.730;9.108;2022-10-20T02:00:03;12.00;99.90
6792;DHT22;3433;48.730;9.108;2022-10-20T02:02:44;11.90;99.90
6792;DHT22;3433;48.730;9.108;2022-10-20T02:05:26;11.90;99.90
6792;DHT22;3433;48.730;9.108;2022-10-20T02:08:02;11.90;99.90
6792;DHT22;3433;48.730;9.108;2022-10-20T02:10:33;11.80;99.90
6792;DHT22;3433;48.730;9.108;2022-10-20T02:13:06;11.80;99.90
6792;DHT22;3433;48.730;9.108;2022-10-20T02:15:36;11.80;99.90
6792;DHT22;3433;48.730;9.108;2022-10-20T02:18:06;11.80;99.90
6792;DHT22;3433;48.730;9.108;2022-10-20T02:20:34;11.80;99.90
6792;DHT22;3433;48.730;9.108;2022-10-20T02:23:04;11.80;99.90
6792;DHT22;3433;48.730;9.108;2022-10-20T02:25:32;11.80;99.90
6792;DHT22;3433;48.730;9.108;2022-10-20T02:28:00;11.80;99.90
6792;DHT22;3433;48.730;9.108;2022-10-20T02:30:28;11.70;99.90
6792;DHT22;3433;48.730;9.108;2022-10-20T02:32:57;11.70;99.90
6792;DHT22;3433;48.730;9.108;2022-10-20T02:35:28;11.70;99.90
6792;DHT22;3433;48.730;9.108;2022-10-20T02:37:55;11.70;99.90
6792;DHT22;3433;48.730;9.108;2022-10-20T02:40:22;11.70;99.90
6792;DHT22;3433;48.730;9.108;2022-10-20T02:42:49;11.70;99.90
6792;DHT22;3433;48.730;9.108;2022-10-20T02:45:16;11.70;99.90
6792;DHT22;3433;48.730;9.108;2022-10-20T02:47:43;11.70;99.90
6792;DHT22;3433;48.730;9.108;2022-10-20T02:50:12;11.70;99.90
6792;DHT22;3433;48.730;9.108;2022-10-20T02:52:39;11.70;99.90
6792;DHT22;3433;48.730;9.108;2022-10-20T02:55:06;11.70;99.90
6792;DHT22;3433;48.730;9.108;2022-10-20T02:57:33;11.70;99.90
6792;DHT22;3433;48.730;9.108;2022-10-20T03:00:00;11.80;99.90
6792;DHT22;3433;48.730;9.108;2022-10-20T03:02:27;11.70;99.90
6792;DHT22;3433;48.730;9.108;2022-10-20T03:04:54;11.70;99.90
6792;DHT22;3433;48.730;9.108;2022-10-20T03:07:22;11.70;99.90
6792;DHT22;3433;48.730;9.108;2022-10-20T03:09:49;11.70;99.90
6792;DHT22;3433;48.730;9.108;2022-10-20T03:12:16;11.70;99.90
6792;DHT22;3433;48.730;9.108;2022-10-20T03:14:43;11.70;99.90
6792;DHT22;3433;48.730;9.108;2022-10-20T03:17:10;11.70;99.90
6792;DHT22;3433;48.730;9.108;2022-10-20T03:19:37;11.70;99.90
6792;DHT22;3433;48.730;9.108;2022-10-20T03:22:04;11.70;99.90
6792;DHT22;3433;48.730;9.108;2022-10-20T03:24:32;11.70;99.90
6792;DHT22;3433;48.730;9.108;2022-10-20T03:26:59;11.70;99.90
6792;DHT22;3433;48.730;9.108;2022-10-20T03:29:26;11.70;99.90
6792;DHT22;3433;48.730;9.108;2022-10-20T03:31:53;11.70;99.90
6792;DHT22;3433;48.730;9.108;2022-10-20T03:34:20;11.70;99.90
6792;DHT22;3433;48.730;9.108;2022-10-20T03:36:46;11.70;99.90
6792;DHT22;3433;48.730;9.108;2022-10-20T03:39:13;11.70;99.90
6792;DHT22;3433;48.730;9.108;2022-10-20T03:41:42;11.70;99.90
6792;DHT22;3433;48.730;9.108;2022-10-20T03:44:09;11.70;99.90
6792;DHT22;3433;48.730;9.108;2022-10-20T03:46:36;11.80;99.90
6792;DHT22;3433;48.730;9.108;2022-10-20T03:49:03;11.70;99.90
6792;DHT22;3433;48.730;9.108;2022-10-20T03:51:30;11.80;99.90
6792;DHT22;3433;48.730;9.108;2022-10-20T03:53:57;11.80;99.90
6792;DHT22;3433;48.730;9.108;2022-10-20T03:56:24;11.80;99.90
6792;DHT22;3433;48.730;9.108;2022-10-20T03:58:52;11.80;99.90
6792;DHT22;3433;48.730;9.108;2022-10-20T04:01:20;11.80;99.90
6792;DHT22;3433;48.730;9.108;2022-10-20T04:03:48;11.80;99.90
6792;DHT22;3433;48.730;9.108;2022-10-20T04:06:15;11.80;99.90
6792;DHT22;3433;48.730;9.108;2022-10-20T04:08:42;11.90;99.90
6792;DHT22;3433;48.730;9.108;2022-10-20T04:11:09;11.90;99.90
6792;DHT22;3433;48.730;9.108;2022-10-20T04:13:36;11.90;99.90
6792;DHT22;3433;48.730;9.108;2022-10-20T04:16:05;11.90;99.90
6792;DHT22;3433;48.730;9.108;2022-10-20T04:18:32;11.90;99.90
6792;DHT22;3433;48.730;9.108;2022-10-20T04:20:59;11.90;99.90
6792;DHT22;3433;48.730;9.108;2022-10-20T04:23:26;12.00;99.90
6792;DHT22;3433;48.730;9.108;2022-10-20T04:25:53;12.00;99.90
6792;DHT22;3433;48.730;9.108;2022-10-20T04:28:20;12.00;99.90
6792;DHT22;3433;48.730;9.108;2022-10-20T04:30:50;12.00;99.90
6792;DHT22;3433;48.730;9.108;2022-10-20T04:33:18;12.10;99.90
6792;DHT22;3433;48.730;9.108;2022-10-20T04:35:45;12.10;99.90
6792;DHT22;3433;48.730;9.108;2022-10-20T04:38:12;12.10;99.90
6792;DHT22;3433;48.730;9.108;2022-10-20T04:40:39;12.10;99.90
6792;DHT22;3433;48.730;9.108;2022-10-20T04:43:05;12.20;99.90
6792;DHT22;3433;48.730;9.108;2022-10-20T04:45:32;12.20;99.90
6792;DHT22;3433;48.730;9.108;2022-10-20T04:47:59;12.20;99.90
6792;DHT22;3433;48.730;9.108;2022-10-20T04:50:28;12.30;99.90
6792;DHT22;3433;48.730;9.108;2022-10-20T04:52:55;12.30;99.90
6792;DHT22;3433;48.730;9.108;2022-10-20T04:55:22;12.30;99.90
6792;DHT22;3433;48.730;9.108;2022-10-20T04:57:48;12.40;99.90
6792;DHT22;3433;48.730;9.108;2022-10-20T05:00:15;12.40;99.90
6792;DHT22;3433;48.730;9.108;2022-10-20T05:02:42;12.40;99.90
6792;DHT22;3433;48.730;9.108;2022-10-20T05:05:09;12.40;99.90
6792;DHT22;3433;48.730;9.108;2022-10-20T05:07:37;12.40;99.90
6792;DHT22;3433;48.730;9.108;2022-10-20T05:10:05;12.60;99.90
6792;DHT22;3433;48.730;9.108;2022-10-20T05:12:32;13.00;99.90
6792;DHT22;3433;48.730;9.108;2022-10-20T05:14:59;13.20;99.90
6792;DHT22;3433;48.730;9.108;2022-10-20T05:17:28;13.40;99.90
6792;DHT22;3433;48.730;9.108;2022-10-20T05:19:55;13.50;99.90
6792;DHT22;3433;48.730;9.108;2022-10-20T05:22:22;13.60;99.90
6792;DHT22;3433;48.730;9.108;2022-10-20T05:24:50;13.60;99.90
6792;DHT22;3433;48.730;9.108;2022-10-20T05:27:17;13.60;99.90
6792;DHT22;3433;48.730;9.108;2022-10-20T05:29:44;13.70;99.90
6792;DHT22;3433;48.730;9.108;2022-10-20T05:32:11;13.60;99.90
6792;DHT22;3433;48.730;9.108;2022-10-20T05:34:37;13.50;99.90
6792;DHT22;3433;48.730;9.108;2022-10-20T05:37:04;13.50;99.90
6792;DHT22;3433;48.730;9.108;2022-10-20T05:39:31;13.50;99.90
6792;DHT22;3433;48.730;9.108;2022-10-20T05:41:59;13.40;99.90
6792;DHT22;3433;48.730;9.108;2022-10-20T05:44:26;13.50;99.90
6792;DHT22;3433;48.730;9.108;2022-10-20T05:46:53;13.40;99.90
6792;DHT22;3433;48.730;9.108;2022-10-20T05:49:20;13.40;99.90
6792;DHT22;3433;48.730;9.108;2022-10-20T05:51:50;13.30;99.90
6792;DHT22;3433;48.730;9.108;2022-10-20T05:54:17;13.20;99.90
6792;DHT22;3433;48.730;9.108;2022-10-20T05:56:44;13.10;99.90
6792;DHT22;3433;48.730;9.108;2022-10-20T05:59:13;13.10;99.90
6792;DHT22;3433;48.730;9.108;2022-10-20T06:01:40;13.10;99.90
6792;DHT22;3433;48.730;9.108;2022-10-20T06:04:14;13.20;99.90
6792;DHT22;3433;48.730;9.108;2022-10-20T06:06:41;13.20;99.90
6792;DHT22;3433;48.730;9.108;2022-10-20T06:09:09;13.10;99.90
6792;DHT22;3433;48.730;9.108;2022-10-20T06:11:37;13.10;99.90
6792;DHT22;3433;48.730;9.108;2022-10-20T06:14:04;13.00;99.90
6792;DHT22;3433;48.730;9.108;2022-10-20T06:16:32;13.00;99.90
6792;DHT22;3433;48.730;9.108;2022-10-20T06:18:59;13.00;99.90
6792;DHT22;3433;48.730;9.108;2022-10-20T06:21:27;13.00;99.90
6792;DHT22;3433;48.730;9.108;2022-10-20T06:23:56;13.00;99.90
6792;DHT22;3433;48.730;9.108;2022-10-20T06:26:24;13.00;99.90
6792;DHT22;3433;48.730;9.108;2022-10-20T06:28:55;13.00;99.90
6792;DHT22;3433;48.730;9.108;2022-10-20T06:31:24;13.00;99.90
6792;DHT22;3433;48.730;9.108;2022-10-20T06:33:53;13.00;99.90
6792;DHT22;3433;48.730;9.108;2022-10-20T06:36:21;13.00;99.90
6792;DHT22;3433;48.730;9.108;2022-10-20T06:38:51;13.00;99.90
6792;DHT22;3433;48.730;9.108;2022-10-20T06:41:18;13.00;99.90
6792;DHT22;3433;48.730;9.108;2022-10-20T06:43:45;13.00;99.90
6792;DHT22;3433;48.730;9.108;2022-10-20T06:46:15;13.00;99.90
6792;DHT22;3433;48.730;9.108;2022-10-20T06:48:43;13.00;99.90
6792;DHT22;3433;48.730;9.108;2022-10-20T06:51:13;13.10;99.90
6792;DHT22;3433;48.730;9.108;2022-10-20T06:53:41;13.10;99.90
6792;DHT22;3433;48.730;9.108;2022-10-20T06:56:10;13.10;99.90
6792;DHT22;3433;48.730;9.108;2022-10-20T06:58:39;13.20;99.90
6792;DHT22;3433;48.730;9.108;2022-10-20T07:01:07;13.20;99.90
6792;DHT22;3433;48.730;9.108;2022-10-20T07:03:35;13.10;99.90
6792;DHT22;3433;48.730;9.108;2022-10-20T07:06:03;13.20;99.90
6792;DHT22;3433;48.730;9.108;2022-10-20T07:08:33;13.20;99.90
6792;DHT22;3433;48.730;9.108;2022-10-20T07:11:00;13.30;99.90
6792;DHT22;3433;48.730;9.108;2022-10-20T07:13:29;13.30;99.90
6792;DHT22;3433;48.730;9.108;2022-10-20T07:15:56;13.40;99.90
6792;DHT22;3433;48.730;9.108;2022-10-20T07:18:25;13.30;99.90
6792;DHT22;3433;48.730;9.108;2022-10-20T07:20:55;13.30;99.90
6792;DHT22;3433;48.730;9.108;2022-10-20T07:23:22;13.50;99.90
6792;DHT22;3433;48.730;9.108;2022-10-20T07:25:51;13.50;99.90
6792;DHT22;3433;48.730;9.108;2022-10-20T07:28:18;13.50;99.90
6792;DHT22;3433;48.730;9.108;2022-10-20T07:30:46;13.60;99.90
6792;DHT22;3433;48.730;9.108;2022-10-20T07:33:13;13.60;99.90
6792;DHT22;3433;48.730;9.108;2022-10-20T07:35:40;13.80;99.90
6792;DHT22;3433;48.730;9.108;2022-10-20T07:38:07;13.80;99.90
6792;DHT22;3433;48.730;9.108;2022-10-20T07:40:34;13.90;99.90
6792;DHT22;3433;48.730;9.108;2022-10-20T07:43:02;14.00;99.90
6792;DHT22;3433;48.730;9.108;2022-10-20T07:45:29;14.00;99.90
6792;DHT22;3433;48.730;9.108;2022-10-20T07:47:56;14.10;99.90
6792;DHT22;3433;48.730;9.108;2022-10-20T07:50:23;14.20;99.90
6792;DHT22;3433;48.730;9.108;2022-10-20T07:52:51;14.30;99.90
6792;DHT22;3433;48.730;9.108;2022-10-20T07:55:18;14.40;99.90
6792;DHT22;3433;48.730;9.108;2022-10-20T07:57:48;14.40;99.90
6792;DHT22;3433;48.730;9.108;2022-10-20T08:00:16;14.50;99.90
6792;DHT22;3433;48.730;9.108;2022-10-20T08:02:43;14.50;99.90
6792;DHT22;3433;48.730;9.108;2022-10-20T08:05:11;14.50;99.90
6792;DHT22;3433;48.730;9.108;2022-10-20T08:07:38;14.60;99.90
6792;DHT22;3433;48.730;9.108;2022-10-20T08:10:06;14.70;99.90
6792;DHT22;3433;48.730;9.108;2022-10-20T08:12:34;14.80;99.90
6792;DHT22;3433;48.730;9.108;2022-10-20T08:15:01;14.90;99.90
6792;DHT22;3433;48.730;9.108;2022-10-20T08:17:29;15.00;99.90
6792;DHT22;3433;48.730;9.108;2022-10-20T08:19:56;15.00;99.90
6792;DHT22;3433;48.730;9.108;2022-10-20T08:22:23;15.00;99.90
6792;DHT22;3433;48.730;9.108;2022-10-20T08:24:49;15.00;99.90
6792;DHT22;3433;48.730;9.108;2022-10-20T08:27:16;15.20;99.90
6792;DHT22;3433;48.730;9.108;2022-10-20T08:29:43;15.30;99.90
6792;DHT22;3433;48.730;9.108;2022-10-20T08:32:10;15.30;99.90
6792;DHT22;3433;48.730;9.108;2022-10-20T08:34:40;15.30;99.90
6792;DHT22;3433;48.730;9.108;2022-10-20T08:37:07;15.40;99.90
6792;DHT22;3433;48.730;9.108;2022-10-20T08:39:49;15.40;99.90
6792;DHT22;3433;48.730;9.108;2022-10-20T08:42:17;15.50;99.90
6792;DHT22;3433;48.730;9.108;2022-10-20T08:44:45;15.60;99.90
6792;DHT22;3433;48.730;9.108;2022-10-20T08:47:22;15.70;99.90
6792;DHT22;3433;48.730;9.108;2022-10-20T08:49:51;15.80;99.90
6792;DHT22;3433;48.730;9.108;2022-10-20T08:52:21;15.80;99.90
6792;DHT22;3433;48.730;9.108;2022-10-20T08:54:52;15.90;99.90
6792;DHT22;3433;48.730;9.108;2022-10-20T08:57:21;16.10;99.90
6792;DHT22;3433;48.730;9.108;2022-10-20T08:59:51;16.10;99.90
6792;DHT22;3433;48.730;9.108;2022-10-20T09:02:18;16.20;99.90
6792;DHT22;3433;48.730;9.108;2022-10-20T09:04:48;16.30;99.90
6792;DHT22;3433;48.730;9.108;2022-10-20T09:07:22;16.30;99.90
6792;DHT22;3433;48.730;9.108;2022-10-20T09:09:51;16.40;99.90
6792;DHT22;3433;48.730;9.108;2022-10-20T09:12:19;16.60;99.90
6792;DHT22;3433;48.730;9.108;2022-10-20T09:14:46;16.70;99.90
6792;DHT22;3433;48.730;9.108;2022-10-20T09:17:15;16.90;99.90
6792;DHT22;3433;48.730;9.108;2022-10-20T09:19:45;16.80;99.90
6792;DHT22;3433;48.730;9.108;2022-10-20T09:22:15;16.70;99.90
6792;DHT22;3433;48.730;9.108;2022-10-20T09:24:45;16.80;99.90
6792;DHT22;3433;48.730;9.108;2022-10-20T09:27:20;16.60;99.90
6792;DHT22;3433;48.730;9.108;2022-10-20T09:29:49;16.70;99.90
6792;DHT22;3433;48.730;9.108;2022-10-20T09:32:19;16.70;99.90
6792;DHT22;3433;48.730;9.108;2022-10-20T09:34:47;16.70;99.90
6792;DHT22;3433;48.730;9.108;2022-10-20T09:37:17;16.70;99.90
6792;DHT22;3433;48.730;9.108;2022-10-20T09:39:52;16.80;99.90
6792;DHT22;3433;48.730;9.108;2022-10-20T09:42:22;16.80;99.90
6792;DHT22;3433;48.730;9.108;2022-10-20T09:44:53;16.80;99.90
6792;DHT22;3433;48.730;9.108;2022-10-20T09:47:23;16.80;99.90
6792;DHT22;3433;48.730;9.108;2022-10-20T09:49:53;16.80;99.90
6792;DHT22;3433;48.730;9.108;2022-10-20T09:52:23;16.70;99.90
6792;DHT22;3433;48.730;9.108;2022-10-20T09:54:58;16.70;99.90
6792;DHT22;3433;48.730;9.108;2022-10-20T09:57:26;16.70;99.90
6792;DHT22;3433;48.730;9.108;2022-10-20T09:59:54;16.70;99.90
6792;DHT22;3433;48.730;9.108;2022-10-20T10:02:30;16.70;99.90
6792;DHT22;3433;48.730;9.108;2022-10-20T10:05:16;16.60;99.90
6792;DHT22;3433;48.730;9.108;2022-10-20T10:07:44;16.70;99.90
6792;DHT22;3433;48.730;9.108;2022-10-20T10:10:25;16.70;99.90
6792;DHT22;3433;48.730;9.108;2022-10-20T10:12:55;16.80;99.90
6792;DHT22;3433;48.730;9.108;2022-10-20T10:15:28;16.80;99.90
6792;DHT22;3433;48.730;9.108;2022-10-20T10:17:56;16.80;99.90
6792;DHT22;3433;48.730;9.108;2022-10-20T10:20:33;16.90;99.90
6792;DHT22;3433;48.730;9.108;2022-10-20T10:23:18;16.90;99.90
6792;DHT22;3433;48.730;9.108;2022-10-20T10:25:47;16.80;99.90
6792;DHT22;3433;48.730;9.108;2022-10-20T10:28:31;16.90;99.90
6792;DHT22;3433;48.730;9.108;2022-10-20T10:31:08;16.90;99.90
6792;DHT22;3433;48.730;9.108;2022-10-20T10:33:35;17.00;99.90
6792;DHT22;3433;48.730;9.108;2022-10-20T10:36:05;17.10;99.90
6792;DHT22;3433;48.730;9.108;2022-10-20T10:38:33;17.10;99.90
6792;DHT22;3433;48.730;9.108;2022-10-20T10:41:07;17.10;99.90
6792;DHT22;3433;48.730;9.108;2022-10-20T10:43:41;17.20;99.90
6792;DHT22;3433;48.730;9.108;2022-10-20T10:46:15;17.10;99.90
6792;DHT22;3433;48.730;9.108;2022-10-20T10:48:56;17.10;99.90
6792;DHT22;3433;48.730;9.108;2022-10-20T10:51:36;17.10;99.90
6792;DHT22;3433;48.730;9.108;2022-10-20T10:54:20;17.00;99.90
6792;DHT22;3433;48.730;9.108;2022-10-20T10:56:53;17.00;99.90
6792;DHT22;3433;48.730;9.108;2022-10-20T10:59:21;17.00;99.90
6792;DHT22;3433;48.730;9.108;2022-10-20T11:02:05;17.00;99.90
6792;DHT22;3433;48.730;9.108;2022-10-20T11:05:05;17.10;99.90
6792;DHT22;3433;48.730;9.108;2022-10-20T11:07:42;17.10;99.90
6792;DHT22;3433;48.730;9.108;2022-10-20T11:10:16;17.20;99.90
6792;DHT22;3433;48.730;9.108;2022-10-20T11:13:19;17.30;99.90
6792;DHT22;3433;48.730;9.108;2022-10-20T11:16:07;17.40;99.90
6792;DHT22;3433;48.730;9.108;2022-10-20T11:18:51;17.40;99.90
6792;DHT22;3433;48.730;9.108;2022-10-20T11:21:27;17.50;99.90
6792;DHT22;3433;48.730;9.108;2022-10-20T11:24:11;17.50;99.90
6792;DHT22;3433;48.730;9.108;2022-10-20T11:26:43;17.40;99.90
6792;DHT22;3433;48.730;9.108;2022-10-20T11:29:16;17.40;99.90
6792;DHT22;3433;48.730;9.108;2022-10-20T11:31:49;17.50;99.90
6792;DHT22;3433;48.730;9.108;2022-10-20T11:34:22;17.60;99.90
6792;DHT22;3433;48.730;9.108;2022-10-20T11:37:01;17.50;99.90
6792;DHT22;3433;48.730;9.108;2022-10-20T11:39:34;17.50;99.90
6792;DHT22;3433;48.730;9.108;2022-10-20T11:42:13;17.50;99.90
6792;DHT22;3433;48.730;9.108;2022-10-20T11:44:45;17.50;99.90
6792;DHT22;3433;48.730;9.108;2022-10-20T11:47:16;17.50;99.90
6792;DHT22;3433;48.730;9.108;2022-10-20T11:49:44;17.50;99.90
6792;DHT22;3433;48.730;9.108;2022-10-20T11:52:52;17.60;99.90
6792;DHT22;3433;48.730;9.108;2022-10-20T11:55:35;17.60;99.90
6792;DHT22;3433;48.730;9.108;2022-10-20T11:58:23;17.60;99.90
6792;DHT22;3433;48.730;9.108;2022-10-20T12:00:59;17.60;99.90
6792;DHT22;3433;48.730;9.108;2022-10-20T12:03:52;17.50;99.90
6792;DHT22;3433;48.730;9.108;2022-10-20T12:10:07;17.60;99.90
6792;DHT22;3433;48.730;9.108;2022-10-20T12:12:47;17.60;99.90
6792;DHT22;3433;48.730;9.108;2022-10-20T12:15:21;17.60;99.90
6792;DHT22;3433;48.730;9.108;2022-10-20T12:17:54;17.50;99.90
6792;DHT22;3433;48.730;9.108;2022-10-20T12:23:55;17.50;99.90
6792;DHT22;3433;48.730;9.108;2022-10-20T12:29:57;17.50;99.90
6792;DHT22;3433;48.730;9.108;2022-10-20T12:32:50;17.50;99.90
6792;DHT22;3433;48.730;9.108;2022-10-20T12:35:31;17.50;99.90
6792;DHT22;3433;48.730;9.108;2022-10-20T12:38:17;17.60;99.90
6792;DHT22;3433;48.730;9.108;2022-10-20T12:40:50;17.70;99.90
6792;DHT22;3433;48.730;9.108;2022-10-20T12:43:46;17.50;99.90
6792;DHT22;3433;48.730;9.108;2022-10-20T12:46:17;17.40;99.90
6792;DHT22;3433;48.730;9.108;2022-10-20T12:48:47;17.60;99.90
6792;DHT22;3433;48.730;9.108;2022-10-20T12:51:29;17.60;99.90
6792;DHT22;3433;48.730;9.108;2022-10-20T12:54:00;17.60;99.90
6792;DHT22;3433;48.730;9.108;2022-10-20T12:56:33;17.60;99.90
6792;DHT22;3433;48.730;9.108;2022-10-20T13:05:45;17.50;99.90
6792;DHT22;3433;48.730;9.108;2022-10-20T13:08:31;17.60;99.90
6792;DHT22;3433;48.730;9.108;2022-10-20T13:14:23;17.40;99.90
6792;DHT22;3433;48.730;9.108;2022-10-20T13:17:03;17.40;99.90
6792;DHT22;3433;48.730;9.108;2022-10-20T13:19:35;17.40;99.90
6792;DHT22;3433;48.730;9.108;2022-10-20T13:22:39;17.40;99.90
6792;DHT22;3433;48.730;9.108;2022-10-20T13:25:34;17.30;99.90
6792;DHT22;3433;48.730;9.108;2022-10-20T13:28:04;17.20;99.90
6792;DHT22;3433;48.730;9.108;2022-10-20T13:30:32;17.40;99.90
6792;DHT22;3433;48.730;9.108;2022-10-20T13:33:06;17.10;99.90
6792;DHT22;3433;48.730;9.108;2022-10-20T13:35:41;17.20;99.90
6792;DHT22;3433;48.730;9.108;2022-10-20T13:38:15;17.20;99.90
6792;DHT22;3433;48.730;9.108;2022-10-20T13:40:51;17.30;99.90
6792;DHT22;3433;48.730;9.108;2022-10-20T13:43:28;17.40;99.90
6792;DHT22;3433;48.730;9.108;2022-10-20T13:46:09;17.40;99.90
6792;DHT22;3433;48.730;9.108;2022-10-20T13:48:47;17.30;99.90
6792;DHT22;3433;48.730;9.108;2022-10-20T13:51:19;17.40;99.90
6792;DHT22;3433;48.730;9.108;2022-10-20T13:53:50;17.50;99.90
6792;DHT22;3433;48.730;9.108;2022-10-20T13:56:30;17.50;99.90
6792;DHT22;3433;48.730;9.108;2022-10-20T13:59:00;17.50;99.90
6792;DHT22;3433;48.730;9.108;2022-10-20T14:01:28;17.50;99.90
6792;DHT22;3433;48.730;9.108;2022-10-20T14:03:55;17.40;99.90
6792;DHT22;3433;48.730;9.108;2022-10-20T14:06:30;17.50;99.90
6792;DHT22;3433;48.730;9.108;2022-10-20T14:09:07;17.50;99.90
6792;DHT22;3433;48.730;9.108;2022-10-20T14:11:36;17.40;99.90
6792;DHT22;3433;48.730;9.108;2022-10-20T14:14:02;17.50;99.90
6792;DHT22;3433;48.730;9.108;2022-10-20T14:16:30;17.50;99.90
6792;DHT22;3433;48.730;9.108;2022-10-20T14:19:02;17.40;99.90
6792;DHT22;3433;48.730;9.108;2022-10-20T14:21:38;17.40;99.90
6792;DHT22;3433;48.730;9.108;2022-10-20T14:24:07;17.40;99.90
6792;DHT22;3433;48.730;9.108;2022-10-20T14:26:36;17.40;99.90
6792;DHT22;3433;48.730;9.108;2022-10-20T14:29:10;17.40;99.90
6792;DHT22;3433;48.730;9.108;2022-10-20T14:31:37;17.50;99.90
6792;DHT22;3433;48.730;9.108;2022-10-20T14:34:05;17.40;99.90
6792;DHT22;3433;48.730;9.108;2022-10-20T14:36:32;17.40;99.90
6792;DHT22;3433;48.730;9.108;2022-10-20T14:38:59;17.40;99.90
6792;DHT22;3433;48.730;9.108;2022-10-20T14:41:30;17.40;99.90
6792;DHT22;3433;48.730;9.108;2022-10-20T14:44:00;17.30;99.90
6792;DHT22;3433;48.730;9.108;2022-10-20T14:46:29;17.20;99.90
6792;DHT22;3433;48.730;9.108;2022-10-20T14:48:59;17.10;99.90
6792;DHT22;3433;48.730;9.108;2022-10-20T14:51:27;17.00;99.90
6792;DHT22;3433;48.730;9.108;2022-10-20T14:54:13;17.10;99.90
6792;DHT22;3433;48.730;9.108;2022-10-20T14:56:43;17.10;99.90
6792;DHT22;3433;48.730;9.108;2022-10-20T14:59:16;17.00;99.90
6792;DHT22;3433;48.730;9.108;2022-10-20T15:01:59;17.10;99.90
6792;DHT22;3433;48.730;9.108;2022-10-20T15:04:29;17.10;99.90
6792;DHT22;3433;48.730;9.108;2022-10-20T15:07:05;17.00;99.90
6792;DHT22;3433;48.730;9.108;2022-10-20T15:09:36;17.00;99.90
6792;DHT22;3433;48.730;9.108;2022-10-20T15:12:06;17.10;99.90
6792;DHT22;3433;48.730;9.108;2022-10-20T15:14:34;17.20;99.90
6792;DHT22;3433;48.730;9.108;2022-10-20T15:17:01;17.20;99.90
6792;DHT22;3433;48.730;9.108;2022-10-20T15:19:32;17.20;99.90
6792;DHT22;3433;48.730;9.108;2022-10-20T15:22:08;17.20;99.90
6792;DHT22;3433;48.730;9.108;2022-10-20T15:24:36;17.10;99.90
6792;DHT22;3433;48.730;9.108;2022-10-20T15:27:04;17.20;99.90
6792;DHT22;3433;48.730;9.108;2022-10-20T15:29:33;17.20;99.90
6792;DHT22;3433;48.730;9.108;2022-10-20T15:32:00;17.20;99.90
6792;DHT22;3433;48.730;9.108;2022-10-20T15:34:31;17.20;99.90
6792;DHT22;3433;48.730;9.108;2022-10-20T15:36:58;17.20;99.90
6792;DHT22;3433;48.730;9.108;2022-10-20T15:39:25;17.20;99.90
6792;DHT22;3433;48.730;9.108;2022-10-20T15:41:51;17.20;99.90
6792;DHT22;3433;48.730;9.108;2022-10-20T15:44:20;17.20;99.90
6792;DHT22;3433;48.730;9.108;2022-10-20T15:46:52;17.20;99.90
6792;DHT22;3433;48.730;9.108;2022-10-20T15:49:19;17.10;99.90
6792;DHT22;3433;48.730;9.108;2022-10-20T15:51:46;17.10;99.90
6792;DHT22;3433;48.730;9.108;2022-10-20T15:54:16;17.10;99.90
6792;DHT22;3433;48.730;9.108;2022-10-20T15:56:43;17.10;99.90
6792;DHT22;3433;48.730;9.108;2022-10-20T15:59:10;17.10;99.90
6792;DHT22;3433;48.730;9.108;2022-10-20T16:01:37;17.10;99.90
6792;DHT22;3433;48.730;9.108;2022-10-20T16:04:15;17.00;99.90
6792;DHT22;3433;48.730;9.108;2022-10-20T16:06:43;17.10;99.90
6792;DHT22;3433;48.730;9.108;2022-10-20T16:09:09;17.00;99.90
6792;DHT22;3433;48.730;9.108;2022-10-20T16:11:36;17.00;99.90
6792;DHT22;3433;48.730;9.108;2022-10-20T16:14:03;17.00;99.90
6792;DHT22;3433;48.730;9.108;2022-10-20T16:16:30;17.00;99.90
6792;DHT22;3433;48.730;9.108;2022-10-20T16:18:57;17.00;99.90
6792;DHT22;3433;48.730;9.108;2022-10-20T16:21:26;17.00;99.90
6792;DHT22;3433;48.730;9.108;2022-10-20T16:23:52;17.00;99.90
6792;DHT22;3433;48.730;9.108;2022-10-20T16:26:19;17.00;99.90
6792;DHT22;3433;48.730;9.108;2022-10-20T16:28:49;17.00;99.90
6792;DHT22;3433;48.730;9.108;2022-10-20T16:31:16;17.00;99.90
6792;DHT22;3433;48.730;9.108;2022-10-20T16:33:44;16.90;99.90
6792;DHT22;3433;48.730;9.108;2022-10-20T16:36:13;17.00;99.90
6792;DHT22;3433;48.730;9.108;2022-10-20T16:38:42;16.90;99.90
6792;DHT22;3433;48.730;9.108;2022-10-20T16:41:11;16.90;99.90
6792;DHT22;3433;48.730;9.108;2022-10-20T16:43:40;16.90;99.90
6792;DHT22;3433;48.730;9.108;2022-10-20T16:46:08;16.90;99.90